Time;durP1;ratioP1;P1;durP2;ratioP2;P2;SDS_P1;SDS_P2;PMS_P1;PMS_P2;Temp;Humidity;BMP_temperature;BMP_pressure;BME280_temperature;BME280_humidity;BME280_pressure;Samples;Min_cycle;Max_cycle;Signal;HPM_P1;HPM_P2
2021/11/14 00:10:00;;;;;;;44.95;23.92;;;;;;;8.24;100.00;100352.94;20990658;28;20044;-71
2021/11/14 00:20:05;;;;;;;47.60;23.70;;;;;;;8.25;100.00;100352.03;20990210;28;20098;-71
2021/11/14 00:30:07;;;;;;;48.58;24.23;;;;;;;8.23;100.00;100346.81;20989862;28;20503;-72
2021/11/14 00:40:14;;;;;;;49.33;24.70;;;;;;;8.24;100.00;100352.94;20989203;28;20102;-72
2021/11/14 00:50:16;;;;;;;48.35;24.63;;;;;;;8.24;100.00;100358.16;20989015;28;20434;-72
2021/11/14 01:00:22;;;;;;;45.17;23.67;;;;;;;8.23;100.00;100361.59;20986779;28;20094;-72
2021/11/14 01:10:28;;;;;;;41.63;22.45;;;;;;;8.24;100.00;100358.16;20987564;28;20048;-72
2021/11/14 01:20:37;;;;;;;51.15;25.73;;;;;;;8.22;100.00;100370.31;20986119;28;20448;-72
2021/11/14 01:30:42;;;;;;;47.03;23.27;;;;;;;8.24;100.00;100358.16;20985366;28;20090;-72
2021/11/14 01:40:50;;;;;;;45.05;21.23;;;;;;;8.25;100.00;100359.88;20985406;28;20478;-71
2021/11/14 01:50:53;;;;;;;40.00;20.83;;;;;;;8.23;100.00;100361.59;20985657;28;20041;-72
2021/11/14 02:01:02;;;;;;;43.22;22.38;;;;;;;8.21;100.00;100368.59;20983268;28;20548;-72
2021/11/14 02:11:04;;;;;;;41.38;22.00;;;;;;;8.21;100.00;100376.41;20983184;28;20097;-71
2021/11/14 02:21:07;;;;;;;41.83;21.58;;;;;;;8.23;100.00;100372.91;20983031;28;20102;-71
2021/11/14 02:31:09;;;;;;;46.42;22.40;;;;;;;8.23;100.00;100377.25;20982881;28;20481;-72
2021/11/14 02:41:12;;;;;;;50.08;22.90;;;;;;;8.17;100.00;100383.38;20998879;28;20052;-72
2021/11/14 02:51:18;;;;;;;45.97;21.65;;;;;;;8.26;100.00;100392.03;20997907;28;20098;-71
2021/11/14 03:01:25;;;;;;;48.63;22.58;;;;;;;8.28;100.00;100391.13;20996082;28;20044;-71
2021/11/14 03:11:27;;;;;;;48.45;22.17;;;;;;;8.26;100.00;100390.28;20996888;28;20051;-71
2021/11/14 03:21:29;;;;;;;46.30;23.10;;;;;;;8.24;100.00;100394.66;20997241;28;20099;-73
2021/11/14 03:31:31;;;;;;;48.90;23.08;;;;;;;8.25;100.00;100403.34;20993912;28;20056;-72
2021/11/14 03:41:36;;;;;;;50.17;23.65;;;;;;;8.29;100.00;100413.75;20994388;28;20048;-71
2021/11/14 03:51:38;;;;;;;47.70;23.25;;;;;;;8.29;100.00;100412.88;20993911;28;20052;-70
2021/11/14 04:01:39;;;;;;;47.70;22.63;;;;;;;8.25;100.00;100417.25;20990583;28;20098;-70
2021/11/14 04:11:41;;;;;;;49.15;22.95;;;;;;;8.24;100.00;100423.34;20990602;28;20079;-71
2021/11/14 04:21:43;;;;;;;59.95;24.23;;;;;;;8.29;100.00;100429.41;20990891;28;20506;-70
2021/11/14 04:31:44;;;;;;;53.92;24.25;;;;;;;8.32;100.00;100434.59;20989924;28;20416;-71
2021/11/14 04:41:46;;;;;;;57.05;24.83;;;;;;;8.25;100.00;100442.47;20990367;28;20048;-71
2021/11/14 04:51:48;;;;;;;56.45;24.15;;;;;;;8.27;100.00;100448.53;20987418;28;20052;-72
2021/11/14 05:01:50;;;;;;;57.65;24.98;;;;;;;8.26;100.00;100452.88;20986766;28;20036;-71
2021/11/14 05:11:52;;;;;;;61.13;26.20;;;;;;;8.20;100.00;100463.38;20987190;28;20123;-72
2021/11/14 05:21:53;;;;;;;68.80;27.05;;;;;;;8.24;100.00;100465.09;20986280;28;20048;-72
2021/11/14 05:31:55;;;;;;;68.47;25.98;;;;;;;8.24;100.00;100478.13;20985336;28;20048;-73
2021/11/14 05:41:56;;;;;;;58.50;24.73;;;;;;;8.19;100.00;100485.06;20984776;28;20110;-72
2021/11/14 05:51:59;;;;;;;43.97;22.45;;;;;;;8.21;100.00;100499.00;20984186;28;20482;-73
2021/11/14 06:02:16;;;;;;;36.22;19.73;;;;;;;8.21;100.00;100510.28;20982559;28;20563;-73
2021/11/14 06:12:17;;;;;;;38.50;21.08;;;;;;;8.25;100.00;100521.59;20983971;28;20044;-72
2021/11/14 06:22:19;;;;;;;35.38;20.20;;;;;;;8.21;100.00;100530.31;20984610;28;20098;-73
2021/11/14 06:32:21;;;;;;;42.90;23.08;;;;;;;8.22;100.00;100550.28;20981778;28;20048;-72
2021/11/14 06:42:22;;;;;;;53.03;28.90;;;;;;;8.27;100.00;100566.78;20983441;28;20098;-72
2021/11/14 06:52:24;;;;;;;45.90;29.55;;;;;;;8.20;100.00;100575.53;20982604;28;20543;-72
2021/11/14 07:02:26;;;;;;;45.90;27.63;;;;;;;8.04;100.00;100594.66;20980611;28;20136;-74
2021/11/14 07:12:28;;;;;;;46.00;28.17;;;;;;;8.01;100.00;100603.38;20980233;28;20556;-74
2021/11/14 07:22:29;;;;;;;41.38;26.55;;;;;;;7.92;100.00;100614.69;20970925;28;20122;-74
2021/11/14 07:32:31;;;;;;;48.95;31.33;;;;;;;8.06;100.00;100624.25;20994709;28;20106;-74
2021/11/14 07:42:33;;;;;;;58.47;33.85;;;;;;;8.08;100.00;100632.91;20994904;28;20041;-74
2021/11/14 07:52:34;;;;;;;59.28;32.22;;;;;;;8.26;100.00;100634.63;20993888;28;20094;-74
2021/11/14 08:02:36;;;;;;;56.25;30.98;;;;;;;8.22;100.00;100652.00;20976606;28;20048;-76
2021/11/14 08:12:37;;;;;;;52.28;28.98;;;;;;;8.30;100.00;100650.25;20938630;28;20117;-74
2021/11/14 08:22:40;;;;;;;51.90;29.15;;;;;;;8.43;100.00;100656.34;20935425;28;20040;-75
2021/11/14 08:32:42;;;;;;;50.15;28.90;;;;;;;8.54;98.97;100662.41;20973897;28;20048;-73
2021/11/14 08:42:44;;;;;;;49.08;28.65;;;;;;;8.54;99.67;100674.59;20925159;28;20041;-74
2021/11/14 08:52:48;;;;;;;50.05;29.10;;;;;;;8.66;98.96;100683.22;20939318;28;20044;-73
2021/11/14 09:02:51;;;;;;;47.73;27.23;;;;;;;8.71;96.66;100691.03;20958824;28;20131;-73
2021/11/14 09:12:53;;;;;;;53.15;28.45;;;;;;;8.95;96.34;100703.13;20952818;28;20478;-73
2021/11/14 09:22:55;;;;;;;46.85;26.92;;;;;;;9.06;96.81;100710.94;20896961;28;20049;-72
2021/11/14 09:32:57;;;;;;;44.97;25.00;;;;;;;8.93;97.64;100717.97;20895259;28;20760;-73
2021/11/14 09:42:58;;;;;;;45.00;25.25;;;;;;;9.03;97.22;100717.03;20894671;28;20445;-72
2021/11/14 09:52:59;;;;;;;40.50;23.52;;;;;;;9.12;97.27;100737.03;20895208;28;20056;-73
2021/11/14 10:03:04;;;;;;;41.35;23.45;;;;;;;9.29;97.39;100729.97;20893528;28;20057;-73
2021/11/14 10:13:13;;;;;;;38.67;21.08;;;;;;;9.30;97.06;100736.09;20921594;28;20493;-73
2021/11/14 10:23:16;;;;;;;40.08;23.52;;;;;;;9.44;96.71;100727.28;20975394;28;20496;-73
2021/11/14 10:33:19;;;;;;;35.17;22.55;;;;;;;9.56;96.46;100733.31;20974064;28;20094;-73
2021/11/14 10:43:22;;;;;;;37.17;21.13;;;;;;;9.59;94.08;100743.75;20975628;28;20090;-72
2021/11/14 10:53:28;;;;;;;35.45;21.02;;;;;;;9.61;93.70;100748.09;20977895;28;20497;-72
2021/11/14 11:03:40;;;;;;;33.58;19.20;;;;;;;9.56;94.32;100743.78;20984118;28;20469;-73
2021/11/14 11:13:45;;;;;;;29.90;16.85;;;;;;;9.75;92.11;100745.38;20946245;28;20056;-74
2021/11/14 11:23:46;;;;;;;29.97;16.60;;;;;;;9.58;92.67;100737.66;20926358;28;20486;-77
2021/11/14 11:33:54;;;;;;;30.83;17.45;;;;;;;9.69;92.43;100734.97;20902946;28;20615;-71
2021/11/14 11:43:56;;;;;;;29.05;17.52;;;;;;;9.63;92.02;100742.84;20903526;28;20103;-71
2021/11/14 11:54:05;;;;;;;27.38;17.13;;;;;;;9.73;91.42;100734.94;20903605;28;20057;-70
2021/11/14 12:04:13;;;;;;;28.05;17.40;;;;;;;9.88;90.46;100735.72;20901666;28;20464;-70
2021/11/14 12:14:30;;;;;;;28.15;17.63;;;;;;;9.68;90.32;100754.16;20937209;28;20049;-71
2021/11/14 12:24:48;;;;;;;33.03;19.83;;;;;;;9.73;90.19;100758.47;20945015;28;20045;-72
2021/11/14 12:35:00;;;;;;;29.13;17.17;;;;;;;9.67;90.61;100768.97;20933868;28;20045;-76
2021/11/14 12:45:04;;;;;;;32.33;18.65;;;;;;;9.59;89.38;100769.91;20936073;28;20453;-73
2021/11/14 12:55:12;;;;;;;29.90;18.17;;;;;;;9.73;88.00;100773.31;20934488;28;20070;-73
2021/11/14 13:05:15;;;;;;;26.48;16.52;;;;;;;9.55;89.17;100766.44;20936063;28;20040;-74
2021/11/14 13:15:17;;;;;;;33.15;19.00;;;;;;;9.54;88.70;100774.28;20958594;28;20455;-73
2021/11/14 13:25:26;;;;;;;32.03;18.45;;;;;;;9.59;89.44;100790.81;20945067;28;20111;-71
2021/11/14 13:35:27;;;;;;;35.80;18.65;;;;;;;9.51;89.95;100799.56;20952321;28;20082;-72
2021/11/14 13:45:33;;;;;;;31.75;18.52;;;;;;;9.49;88.65;100800.44;20978140;28;20053;-72
2021/11/14 13:55:41;;;;;;;28.25;16.13;;;;;;;9.51;88.46;100803.91;20975661;28;20064;-72
2021/11/14 14:05:43;;;;;;;40.35;19.70;;;;;;;9.46;87.96;100795.22;20975258;28;20517;-72
2021/11/14 14:15:46;;;;;;;42.88;21.00;;;;;;;9.50;86.09;100789.97;20976476;28;20386;-72
2021/11/14 14:25:48;;;;;;;32.10;17.27;;;;;;;9.59;85.88;100801.28;20975213;28;20045;-72
2021/11/14 14:35:52;;;;;;;29.05;15.93;;;;;;;9.50;85.59;100810.03;21001913;28;20455;-72
2021/11/14 14:46:01;;;;;;;26.65;15.45;;;;;;;9.44;85.36;100829.22;21002692;28;20036;-72
2021/11/14 14:56:28;;;;;;;28.88;16.45;;;;;;;9.50;85.39;100823.97;21000048;28;20078;-72
2021/11/14 15:06:36;;;;;;;35.05;19.42;;;;;;;9.40;86.75;100826.63;20999846;28;20094;-72
2021/11/14 15:16:38;;;;;;;25.45;15.38;;;;;;;9.31;88.02;100829.28;20943305;28;20494;-72
2021/11/14 15:26:40;;;;;;;28.83;17.40;;;;;;;9.25;89.98;100845.84;20917657;28;20431;-72
2021/11/14 15:36:42;;;;;;;27.08;16.65;;;;;;;9.17;92.70;100845.84;20917717;28;20119;-72
2021/11/14 15:46:46;;;;;;;30.13;19.30;;;;;;;9.11;94.38;100848.50;20904277;28;20045;-73
2021/11/14 15:56:48;;;;;;;28.27;18.17;;;;;;;9.08;95.63;100856.34;20903464;28;20049;-72
2021/11/14 16:06:50;;;;;;;31.90;19.35;;;;;;;8.97;95.10;100868.56;20902161;28;20460;-72
2021/11/14 16:16:52;;;;;;;27.70;19.00;;;;;;;9.08;94.17;100876.34;20960513;28;20044;-69
2021/11/14 16:26:53;;;;;;;27.98;17.27;;;;;;;9.00;94.20;100884.19;20982324;28;20463;-70
2021/11/14 16:36:55;;;;;;;27.90;16.90;;;;;;;8.99;93.14;100891.16;20983070;28;20044;-70
2021/11/14 16:46:58;;;;;;;28.42;16.50;;;;;;;9.03;92.39;100912.06;20982677;28;20456;-70
2021/11/14 16:57:01;;;;;;;32.35;17.85;;;;;;;9.04;91.35;100903.34;20979854;28;20056;-70
2021/11/14 17:07:03;;;;;;;25.95;14.73;;;;;;;8.99;90.33;100927.72;20979810;28;20056;-70
2021/11/14 17:17:05;;;;;;;29.48;15.93;;;;;;;8.92;90.63;100928.63;20919346;28;20053;-71
2021/11/14 17:27:07;;;;;;;30.25;17.17;;;;;;;8.87;91.15;100935.59;20894925;28;20064;-71
2021/11/14 17:37:09;;;;;;;31.75;16.77;;;;;;;8.85;91.05;100946.88;20895404;28;20052;-72
2021/11/14 17:47:10;;;;;;;37.05;18.55;;;;;;;8.84;91.16;100946.03;20922121;28;20477;-71
2021/11/14 17:57:12;;;;;;;33.50;17.67;;;;;;;8.86;90.51;100949.53;20976391;28;20265;-71
2021/11/14 18:07:14;;;;;;;27.73;16.52;;;;;;;8.91;90.18;100958.22;20911697;28;20099;-71
2021/11/14 18:17:15;;;;;;;32.33;16.17;;;;;;;8.82;90.29;100960.84;20954931;28;20106;-71
2021/11/14 18:27:18;;;;;;;29.95;16.65;;;;;;;8.84;90.69;100966.91;20975442;28;20044;-70
2021/11/14 18:37:20;;;;;;;27.77;15.63;;;;;;;8.93;89.84;100966.91;20974403;28;20056;-71
2021/11/14 18:47:21;;;;;;;28.65;16.00;;;;;;;8.84;90.20;100972.13;20974473;28;20121;-71
2021/11/14 18:57:23;;;;;;;29.10;16.30;;;;;;;8.78;91.44;100968.66;20973812;28;20045;-71
2021/11/14 19:07:26;;;;;;;32.72;18.25;;;;;;;8.76;91.40;100962.56;20973106;28;20106;-71
2021/11/14 19:17:28;;;;;;;31.27;17.55;;;;;;;8.79;91.86;100966.03;20916553;28;20406;-70
2021/11/14 19:27:29;;;;;;;31.25;18.13;;;;;;;8.78;91.65;100968.66;20914978;28;20463;-71
2021/11/14 19:37:31;;;;;;;35.97;19.77;;;;;;;8.87;91.07;100977.38;20903658;28;20122;-70
2021/11/14 19:47:32;;;;;;;38.13;20.60;;;;;;;8.79;91.72;100979.09;20903467;28;20053;-71
2021/11/14 19:57:34;;;;;;;34.10;18.33;;;;;;;8.83;91.57;100985.19;20901521;28;20110;-71
2021/11/14 20:07:41;;;;;;;34.58;19.40;;;;;;;8.90;92.14;100995.63;20901522;28;20041;-71
2021/11/14 20:17:43;;;;;;;32.53;18.20;;;;;;;8.88;91.89;101000.00;20967165;28;20098;-70
2021/11/14 20:27:45;;;;;;;31.75;18.45;;;;;;;8.99;91.97;101000.00;20981993;28;20047;-71
2021/11/14 20:37:47;;;;;;;32.15;18.65;;;;;;;8.96;91.86;100998.28;20981554;28;20519;-73
2021/11/14 20:47:49;;;;;;;27.58;17.52;;;;;;;8.98;91.45;101011.31;20981730;28;20060;-71
2021/11/14 20:57:50;;;;;;;33.03;19.17;;;;;;;9.09;90.50;101006.09;20980603;28;20049;-70
2021/11/14 21:07:56;;;;;;;27.98;17.55;;;;;;;9.09;90.92;101008.72;20978998;28;20048;-71
2021/11/14 21:17:58;;;;;;;27.42;18.20;;;;;;;9.27;89.37;101013.94;20910399;28;20060;-73
2021/11/14 21:28:00;;;;;;;28.15;17.38;;;;;;;9.21;89.04;101025.25;20913325;28;20140;-71
2021/11/14 21:38:10;;;;;;;25.73;15.80;;;;;;;9.37;86.67;101023.50;20922088;28;20324;-71
2021/11/14 21:48:12;;;;;;;25.80;15.70;;;;;;;9.30;86.89;101024.41;20960151;28;20075;-71
2021/11/14 21:58:14;;;;;;;24.45;15.00;;;;;;;9.21;87.35;101029.63;20975865;28;20048;-71
2021/11/14 22:08:16;;;;;;;26.83;15.95;;;;;;;9.33;86.32;101028.72;20975106;28;20052;-76
2021/11/14 22:18:17;;;;;;;21.13;12.57;;;;;;;9.31;85.41;101033.09;20905186;28;20048;-72
2021/11/14 22:28:19;;;;;;;21.25;11.70;;;;;;;9.43;84.05;101051.38;20890430;28;20045;-70
2021/11/14 22:38:20;;;;;;;16.35;10.60;;;;;;;9.40;82.32;101041.81;20892136;28;20057;-71
2021/11/14 22:48:22;;;;;;;24.45;11.07;;;;;;;9.50;82.30;101048.75;20895852;28;20102;-69
2021/11/14 22:58:24;;;;;;;16.30;9.82;;;;;;;9.47;81.58;101056.59;20908051;28;20102;-70
2021/11/14 23:08:26;;;;;;;16.50;10.00;;;;;;;9.54;80.68;101051.38;20960455;28;20071;-70
2021/11/14 23:18:27;;;;;;;17.33;10.02;;;;;;;9.42;80.45;101045.28;20997284;28;20040;-70
2021/11/14 23:28:29;;;;;;;17.23;10.45;;;;;;;9.47;81.09;101042.66;20995944;28;20093;-71
2021/11/14 23:38:32;;;;;;;18.08;9.93;;;;;;;9.45;80.70;101039.19;20995439;28;20354;-71
2021/11/14 23:48:33;;;;;;;17.52;10.40;;;;;;;9.51;80.78;101050.50;20994454;28;20049;-71
2021/11/14 23:58:35;;;;;;;16.65;10.32;;;;;;;9.42;81.13;101053.13;20993049;28;20049;-72
